sensor_id;sensor_type;location;lat;lon;timestamp;P1;durP1;ratioP1;P2;durP2;ratioP2
4595;SDS011;2310;49.978;8.742;2023-05-14T00:03:51;8.20;;;7.37;;
4595;SDS011;2310;49.978;8.742;2023-05-14T00:07:52;8.70;;;7.70;;
4595;SDS011;2310;49.978;8.742;2023-05-14T00:11:54;8.97;;;7.80;;
4595;SDS011;2310;49.978;8.742;2023-05-14T00:15:55;10.60;;;9.50;;
4595;SDS011;2310;49.978;8.742;2023-05-14T00:19:56;11.17;;;10.07;;
4595;SDS011;2310;49.978;8.742;2023-05-14T00:23:59;12.20;;;10.50;;
4595;SDS011;2310;49.978;8.742;2023-05-14T00:28:00;11.30;;;10.10;;
4595;SDS011;2310;49.978;8.742;2023-05-14T00:32:02;10.83;;;9.83;;
4595;SDS011;2310;49.978;8.742;2023-05-14T00:36:03;11.70;;;10.60;;
4595;SDS011;2310;49.978;8.742;2023-05-14T00:40:05;12.13;;;10.70;;
4595;SDS011;2310;49.978;8.742;2023-05-14T00:44:08;11.97;;;10.80;;
4595;SDS011;2310;49.978;8.742;2023-05-14T00:48:09;13.53;;;11.87;;
4595;SDS011;2310;49.978;8.742;2023-05-14T00:52:10;11.80;;;10.60;;
4595;SDS011;2310;49.978;8.742;2023-05-14T00:56:12;12.17;;;10.97;;
4595;SDS011;2310;49.978;8.742;2023-05-14T01:00:14;10.23;;;9.20;;
4595;SDS011;2310;49.978;8.742;2023-05-14T01:04:16;11.23;;;10.13;;
4595;SDS011;2310;49.978;8.742;2023-05-14T01:08:30;11.80;;;10.63;;
4595;SDS011;2310;49.978;8.742;2023-05-14T01:16:57;11.70;;;10.50;;
4595;SDS011;2310;49.978;8.742;2023-05-14T01:20:57;15.50;;;12.20;;
4595;SDS011;2310;49.978;8.742;2023-05-14T01:24:58;10.77;;;9.77;;
4595;SDS011;2310;49.978;8.742;2023-05-14T01:29:21;11.57;;;10.33;;
4595;SDS011;2310;49.978;8.742;2023-05-14T01:33:13;11.37;;;10.27;;
4595;SDS011;2310;49.978;8.742;2023-05-14T01:37:17;12.10;;;9.53;;
4595;SDS011;2310;49.978;8.742;2023-05-14T01:41:19;11.57;;;10.47;;
4595;SDS011;2310;49.978;8.742;2023-05-14T01:45:21;11.80;;;10.20;;
4595;SDS011;2310;49.978;8.742;2023-05-14T01:49:23;11.83;;;10.53;;
4595;SDS011;2310;49.978;8.742;2023-05-14T01:53:25;13.30;;;10.93;;
4595;SDS011;2310;49.978;8.742;2023-05-14T01:57:26;11.73;;;10.53;;
4595;SDS011;2310;49.978;8.742;2023-05-14T02:01:27;13.60;;;12.10;;
4595;SDS011;2310;49.978;8.742;2023-05-14T02:05:28;14.03;;;12.53;;
4595;SDS011;2310;49.978;8.742;2023-05-14T02:09:29;14.57;;;13.00;;
4595;SDS011;2310;49.978;8.742;2023-05-14T02:13:30;14.57;;;11.03;;
4595;SDS011;2310;49.978;8.742;2023-05-14T02:17:31;11.50;;;9.73;;
4595;SDS011;2310;49.978;8.742;2023-05-14T02:21:33;10.63;;;9.23;;
4595;SDS011;2310;49.978;8.742;2023-05-14T02:25:34;11.20;;;10.03;;
4595;SDS011;2310;49.978;8.742;2023-05-14T02:29:35;12.00;;;10.70;;
4595;SDS011;2310;49.978;8.742;2023-05-14T02:33:37;13.07;;;11.77;;
4595;SDS011;2310;49.978;8.742;2023-05-14T02:37:38;12.70;;;11.03;;
4595;SDS011;2310;49.978;8.742;2023-05-14T02:41:39;14.70;;;10.53;;
4595;SDS011;2310;49.978;8.742;2023-05-14T02:45:40;14.40;;;12.40;;
4595;SDS011;2310;49.978;8.742;2023-05-14T02:49:41;15.80;;;13.57;;
4595;SDS011;2310;49.978;8.742;2023-05-14T02:53:42;14.97;;;13.27;;
4595;SDS011;2310;49.978;8.742;2023-05-14T02:57:43;15.93;;;14.37;;
4595;SDS011;2310;49.978;8.742;2023-05-14T03:01:45;13.37;;;12.07;;
4595;SDS011;2310;49.978;8.742;2023-05-14T03:05:46;14.30;;;11.80;;
4595;SDS011;2310;49.978;8.742;2023-05-14T03:09:47;15.10;;;13.37;;
4595;SDS011;2310;49.978;8.742;2023-05-14T03:13:48;13.37;;;12.10;;
4595;SDS011;2310;49.978;8.742;2023-05-14T03:17:50;12.10;;;10.80;;
4595;SDS011;2310;49.978;8.742;2023-05-14T03:21:51;13.50;;;11.40;;
4595;SDS011;2310;49.978;8.742;2023-05-14T03:25:52;13.00;;;11.60;;
4595;SDS011;2310;49.978;8.742;2023-05-14T03:29:53;11.37;;;10.27;;
4595;SDS011;2310;49.978;8.742;2023-05-14T03:33:54;13.50;;;11.90;;
4595;SDS011;2310;49.978;8.742;2023-05-14T03:37:56;12.00;;;10.80;;
4595;SDS011;2310;49.978;8.742;2023-05-14T03:41:58;11.77;;;10.67;;
4595;SDS011;2310;49.978;8.742;2023-05-14T03:46:00;13.03;;;10.93;;
4595;SDS011;2310;49.978;8.742;2023-05-14T03:50:01;11.77;;;10.67;;
4595;SDS011;2310;49.978;8.742;2023-05-14T03:54:02;12.97;;;10.50;;
4595;SDS011;2310;49.978;8.742;2023-05-14T03:58:03;14.20;;;11.00;;
4595;SDS011;2310;49.978;8.742;2023-05-14T04:02:09;11.27;;;10.10;;
4595;SDS011;2310;49.978;8.742;2023-05-14T04:06:10;11.73;;;10.20;;
4595;SDS011;2310;49.978;8.742;2023-05-14T04:10:12;11.37;;;10.17;;
4595;SDS011;2310;49.978;8.742;2023-05-14T04:14:13;12.17;;;10.53;;
4595;SDS011;2310;49.978;8.742;2023-05-14T04:18:14;10.40;;;9.30;;
4595;SDS011;2310;49.978;8.742;2023-05-14T04:22:16;11.30;;;10.20;;
4595;SDS011;2310;49.978;8.742;2023-05-14T04:26:17;10.23;;;9.33;;
4595;SDS011;2310;49.978;8.742;2023-05-14T04:30:19;11.80;;;10.60;;
4595;SDS011;2310;49.978;8.742;2023-05-14T04:34:20;13.30;;;11.47;;
4595;SDS011;2310;49.978;8.742;2023-05-14T04:38:21;11.87;;;10.67;;
4595;SDS011;2310;49.978;8.742;2023-05-14T04:42:23;13.20;;;11.90;;
4595;SDS011;2310;49.978;8.742;2023-05-14T04:46:24;13.30;;;11.90;;
4595;SDS011;2310;49.978;8.742;2023-05-14T04:51:07;13.73;;;12.43;;
4595;SDS011;2310;49.978;8.742;2023-05-14T04:55:09;12.90;;;11.70;;
4595;SDS011;2310;49.978;8.742;2023-05-14T04:59:10;14.47;;;12.90;;
4595;SDS011;2310;49.978;8.742;2023-05-14T05:03:11;12.20;;;10.97;;
4595;SDS011;2310;49.978;8.742;2023-05-14T05:07:12;13.73;;;12.23;;
4595;SDS011;2310;49.978;8.742;2023-05-14T05:11:14;12.60;;;11.30;;
4595;SDS011;2310;49.978;8.742;2023-05-14T05:15:16;11.93;;;10.73;;
4595;SDS011;2310;49.978;8.742;2023-05-14T05:19:17;12.13;;;11.03;;
4595;SDS011;2310;49.978;8.742;2023-05-14T05:23:20;10.27;;;9.27;;
4595;SDS011;2310;49.978;8.742;2023-05-14T05:27:21;12.80;;;11.50;;
4595;SDS011;2310;49.978;8.742;2023-05-14T05:31:22;12.83;;;9.57;;
4595;SDS011;2310;49.978;8.742;2023-05-14T05:35:24;10.47;;;9.37;;
4595;SDS011;2310;49.978;8.742;2023-05-14T05:39:25;10.70;;;9.60;;
4595;SDS011;2310;49.978;8.742;2023-05-14T05:43:26;11.40;;;9.40;;
4595;SDS011;2310;49.978;8.742;2023-05-14T05:47:30;11.97;;;9.63;;
4595;SDS011;2310;49.978;8.742;2023-05-14T05:51:32;10.60;;;9.60;;
4595;SDS011;2310;49.978;8.742;2023-05-14T05:55:33;9.13;;;8.23;;
4595;SDS011;2310;49.978;8.742;2023-05-14T05:59:34;9.00;;;8.20;;
4595;SDS011;2310;49.978;8.742;2023-05-14T06:03:36;8.43;;;7.63;;
4595;SDS011;2310;49.978;8.742;2023-05-14T06:07:37;9.77;;;8.87;;
4595;SDS011;2310;49.978;8.742;2023-05-14T06:11:39;9.10;;;7.87;;
4595;SDS011;2310;49.978;8.742;2023-05-14T06:15:40;8.77;;;7.40;;
4595;SDS011;2310;49.978;8.742;2023-05-14T06:19:41;10.37;;;9.00;;
4595;SDS011;2310;49.978;8.742;2023-05-14T06:23:42;8.87;;;7.97;;
4595;SDS011;2310;49.978;8.742;2023-05-14T06:27:44;8.80;;;8.00;;
4595;SDS011;2310;49.978;8.742;2023-05-14T06:31:45;9.33;;;8.40;;
4595;SDS011;2310;49.978;8.742;2023-05-14T06:35:46;8.80;;;7.93;;
4595;SDS011;2310;49.978;8.742;2023-05-14T06:39:47;28.27;;;25.30;;
4595;SDS011;2310;49.978;8.742;2023-05-14T06:43:50;10.80;;;9.80;;
4595;SDS011;2310;49.978;8.742;2023-05-14T06:47:51;11.03;;;9.27;;
4595;SDS011;2310;49.978;8.742;2023-05-14T06:51:52;9.03;;;8.13;;
4595;SDS011;2310;49.978;8.742;2023-05-14T06:55:54;9.60;;;7.40;;
4595;SDS011;2310;49.978;8.742;2023-05-14T06:59:56;8.03;;;7.20;;
4595;SDS011;2310;49.978;8.742;2023-05-14T07:03:57;8.63;;;7.77;;
4595;SDS011;2310;49.978;8.742;2023-05-14T07:07:58;8.43;;;7.53;;
4595;SDS011;2310;49.978;8.742;2023-05-14T07:11:59;8.50;;;7.07;;
4595;SDS011;2310;49.978;8.742;2023-05-14T07:16:01;7.00;;;6.30;;
4595;SDS011;2310;49.978;8.742;2023-05-14T07:20:02;9.23;;;8.33;;
4595;SDS011;2310;49.978;8.742;2023-05-14T07:24:04;8.70;;;7.63;;
4595;SDS011;2310;49.978;8.742;2023-05-14T07:28:07;8.70;;;7.83;;
4595;SDS011;2310;49.978;8.742;2023-05-14T07:32:09;7.97;;;6.87;;
4595;SDS011;2310;49.978;8.742;2023-05-14T07:36:10;7.80;;;6.63;;
4595;SDS011;2310;49.978;8.742;2023-05-14T07:40:11;8.40;;;6.40;;
4595;SDS011;2310;49.978;8.742;2023-05-14T07:44:12;7.47;;;6.50;;
4595;SDS011;2310;49.978;8.742;2023-05-14T07:48:14;8.33;;;7.50;;
4595;SDS011;2310;49.978;8.742;2023-05-14T07:52:15;7.60;;;6.73;;
4595;SDS011;2310;49.978;8.742;2023-05-14T07:56:16;9.57;;;8.60;;
4595;SDS011;2310;49.978;8.742;2023-05-14T08:00:18;8.30;;;7.50;;
4595;SDS011;2310;49.978;8.742;2023-05-14T08:04:19;7.27;;;6.57;;
4595;SDS011;2310;49.978;8.742;2023-05-14T08:08:22;8.90;;;6.93;;
4595;SDS011;2310;49.978;8.742;2023-05-14T08:12:24;8.20;;;7.00;;
4595;SDS011;2310;49.978;8.742;2023-05-14T08:16:26;6.97;;;6.10;;
4595;SDS011;2310;49.978;8.742;2023-05-14T08:20:32;6.47;;;5.87;;
4595;SDS011;2310;49.978;8.742;2023-05-14T08:24:31;6.50;;;5.80;;
4595;SDS011;2310;49.978;8.742;2023-05-14T08:28:32;8.60;;;6.03;;
4595;SDS011;2310;49.978;8.742;2023-05-14T08:32:33;7.10;;;5.70;;
4595;SDS011;2310;49.978;8.742;2023-05-14T08:36:35;7.97;;;6.07;;
4595;SDS011;2310;49.978;8.742;2023-05-14T08:40:36;7.50;;;6.10;;
4595;SDS011;2310;49.978;8.742;2023-05-14T08:44:38;6.50;;;5.80;;
4595;SDS011;2310;49.978;8.742;2023-05-14T08:48:41;6.73;;;6.00;;
4595;SDS011;2310;49.978;8.742;2023-05-14T08:52:45;7.27;;;6.23;;
4595;SDS011;2310;49.978;8.742;2023-05-14T08:56:46;5.70;;;5.00;;
4595;SDS011;2310;49.978;8.742;2023-05-14T09:00:50;5.77;;;5.17;;
4595;SDS011;2310;49.978;8.742;2023-05-14T09:04:53;7.70;;;5.57;;
4595;SDS011;2310;49.978;8.742;2023-05-14T09:08:55;6.93;;;5.43;;
4595;SDS011;2310;49.978;8.742;2023-05-14T09:12:57;6.43;;;5.00;;
4595;SDS011;2310;49.978;8.742;2023-05-14T09:16:58;6.40;;;5.40;;
4595;SDS011;2310;49.978;8.742;2023-05-14T09:21:00;6.30;;;5.70;;
4595;SDS011;2310;49.978;8.742;2023-05-14T09:25:05;5.90;;;5.30;;
4595;SDS011;2310;49.978;8.742;2023-05-14T09:29:09;5.70;;;5.10;;
4595;SDS011;2310;49.978;8.742;2023-05-14T09:33:10;5.87;;;5.27;;
4595;SDS011;2310;49.978;8.742;2023-05-14T09:37:11;8.97;;;5.60;;
4595;SDS011;2310;49.978;8.742;2023-05-14T09:41:13;5.23;;;4.73;;
4595;SDS011;2310;49.978;8.742;2023-05-14T09:45:14;8.97;;;8.10;;
4595;SDS011;2310;49.978;8.742;2023-05-14T09:49:16;6.50;;;5.13;;
4595;SDS011;2310;49.978;8.742;2023-05-14T09:53:18;5.30;;;4.23;;
4595;SDS011;2310;49.978;8.742;2023-05-14T09:57:19;5.07;;;4.30;;
4595;SDS011;2310;49.978;8.742;2023-05-14T10:01:21;4.90;;;4.40;;
4595;SDS011;2310;49.978;8.742;2023-05-14T10:05:22;6.33;;;4.03;;
4595;SDS011;2310;49.978;8.742;2023-05-14T10:09:24;7.07;;;5.10;;
4595;SDS011;2310;49.978;8.742;2023-05-14T10:13:32;7.00;;;4.70;;
4595;SDS011;2310;49.978;8.742;2023-05-14T10:17:39;5.10;;;4.60;;
4595;SDS011;2310;49.978;8.742;2023-05-14T10:21:47;5.10;;;4.60;;
4595;SDS011;2310;49.978;8.742;2023-05-14T10:25:48;6.90;;;4.40;;
4595;SDS011;2310;49.978;8.742;2023-05-14T10:29:54;4.60;;;3.57;;
4595;SDS011;2310;49.978;8.742;2023-05-14T10:33:55;5.10;;;4.20;;
4595;SDS011;2310;49.978;8.742;2023-05-14T10:37:58;4.60;;;3.80;;
4595;SDS011;2310;49.978;8.742;2023-05-14T10:42:00;4.90;;;4.20;;
4595;SDS011;2310;49.978;8.742;2023-05-14T10:46:01;4.30;;;3.60;;
4595;SDS011;2310;49.978;8.742;2023-05-14T10:50:03;7.10;;;4.43;;
4595;SDS011;2310;49.978;8.742;2023-05-14T10:54:06;5.43;;;4.40;;
4595;SDS011;2310;49.978;8.742;2023-05-14T10:58:09;5.60;;;5.00;;
4595;SDS011;2310;49.978;8.742;2023-05-14T11:02:17;4.43;;;4.00;;
4595;SDS011;2310;49.978;8.742;2023-05-14T11:06:21;5.00;;;4.30;;
4595;SDS011;2310;49.978;8.742;2023-05-14T11:10:22;5.03;;;4.17;;
4595;SDS011;2310;49.978;8.742;2023-05-14T11:14:25;5.80;;;5.20;;
4595;SDS011;2310;49.978;8.742;2023-05-14T11:18:28;4.87;;;3.70;;
4595;SDS011;2310;49.978;8.742;2023-05-14T11:22:30;5.40;;;3.77;;
4595;SDS011;2310;49.978;8.742;2023-05-14T11:26:32;4.50;;;3.70;;
4595;SDS011;2310;49.978;8.742;2023-05-14T11:30:34;5.20;;;3.60;;
4595;SDS011;2310;49.978;8.742;2023-05-14T11:34:35;5.73;;;4.00;;
4595;SDS011;2310;49.978;8.742;2023-05-14T11:38:46;5.93;;;4.13;;
4595;SDS011;2310;49.978;8.742;2023-05-14T11:42:51;4.80;;;3.80;;
4595;SDS011;2310;49.978;8.742;2023-05-14T11:46:58;4.57;;;3.70;;
4595;SDS011;2310;49.978;8.742;2023-05-14T11:50:56;5.80;;;4.33;;
4595;SDS011;2310;49.978;8.742;2023-05-14T11:54:58;7.70;;;6.33;;
4595;SDS011;2310;49.978;8.742;2023-05-14T11:58:59;8.00;;;5.00;;
4595;SDS011;2310;49.978;8.742;2023-05-14T12:03:00;4.33;;;3.73;;
4595;SDS011;2310;49.978;8.742;2023-05-14T12:07:06;5.77;;;5.17;;
4595;SDS011;2310;49.978;8.742;2023-05-14T12:11:09;12.23;;;6.30;;
4595;SDS011;2310;49.978;8.742;2023-05-14T12:15:11;19.13;;;12.20;;
4595;SDS011;2310;49.978;8.742;2023-05-14T12:19:17;4.13;;;3.57;;
4595;SDS011;2310;49.978;8.742;2023-05-14T12:23:25;5.20;;;4.40;;
4595;SDS011;2310;49.978;8.742;2023-05-14T12:27:27;5.20;;;4.30;;
4595;SDS011;2310;49.978;8.742;2023-05-14T12:31:30;7.33;;;4.07;;
4595;SDS011;2310;49.978;8.742;2023-05-14T12:35:32;5.10;;;3.90;;
4595;SDS011;2310;49.978;8.742;2023-05-14T12:39:33;5.23;;;4.53;;
4595;SDS011;2310;49.978;8.742;2023-05-14T12:43:34;4.80;;;3.67;;
4595;SDS011;2310;49.978;8.742;2023-05-14T12:47:35;4.10;;;3.67;;
4595;SDS011;2310;49.978;8.742;2023-05-14T12:51:37;4.73;;;3.60;;
4595;SDS011;2310;49.978;8.742;2023-05-14T12:55:39;6.70;;;3.90;;
4595;SDS011;2310;49.978;8.742;2023-05-14T12:59:40;5.37;;;4.40;;
4595;SDS011;2310;49.978;8.742;2023-05-14T13:03:41;4.87;;;4.17;;
4595;SDS011;2310;49.978;8.742;2023-05-14T13:07:42;4.30;;;3.10;;
4595;SDS011;2310;49.978;8.742;2023-05-14T13:11:43;4.43;;;3.70;;
4595;SDS011;2310;49.978;8.742;2023-05-14T13:15:45;4.40;;;3.73;;
4595;SDS011;2310;49.978;8.742;2023-05-14T13:19:46;5.03;;;3.70;;
4595;SDS011;2310;49.978;8.742;2023-05-14T13:23:47;5.33;;;3.80;;
4595;SDS011;2310;49.978;8.742;2023-05-14T13:27:49;4.37;;;3.93;;
4595;SDS011;2310;49.978;8.742;2023-05-14T13:31:53;4.57;;;3.90;;
4595;SDS011;2310;49.978;8.742;2023-05-14T13:35:54;5.03;;;4.23;;
4595;SDS011;2310;49.978;8.742;2023-05-14T13:39:55;5.30;;;3.63;;
4595;SDS011;2310;49.978;8.742;2023-05-14T13:43:56;5.20;;;3.67;;
4595;SDS011;2310;49.978;8.742;2023-05-14T13:47:58;4.60;;;3.97;;
4595;SDS011;2310;49.978;8.742;2023-05-14T13:52:01;5.10;;;4.10;;
4595;SDS011;2310;49.978;8.742;2023-05-14T13:56:02;4.20;;;3.80;;
4595;SDS011;2310;49.978;8.742;2023-05-14T14:00:06;4.30;;;3.53;;
4595;SDS011;2310;49.978;8.742;2023-05-14T14:04:09;4.10;;;3.47;;
4595;SDS011;2310;49.978;8.742;2023-05-14T14:08:10;4.90;;;4.40;;
4595;SDS011;2310;49.978;8.742;2023-05-14T14:12:13;7.50;;;6.80;;
4595;SDS011;2310;49.978;8.742;2023-05-14T14:16:14;4.33;;;3.40;;
4595;SDS011;2310;49.978;8.742;2023-05-14T14:20:16;5.00;;;4.30;;
4595;SDS011;2310;49.978;8.742;2023-05-14T14:24:17;4.10;;;3.37;;
4595;SDS011;2310;49.978;8.742;2023-05-14T14:28:18;4.03;;;3.40;;
4595;SDS011;2310;49.978;8.742;2023-05-14T14:32:20;4.30;;;3.60;;
4595;SDS011;2310;49.978;8.742;2023-05-14T14:36:21;3.93;;;2.90;;
4595;SDS011;2310;49.978;8.742;2023-05-14T14:40:22;4.17;;;3.50;;
4595;SDS011;2310;49.978;8.742;2023-05-14T14:44:24;4.53;;;4.00;;
4595;SDS011;2310;49.978;8.742;2023-05-14T14:52:40;4.60;;;3.73;;
4595;SDS011;2310;49.978;8.742;2023-05-14T14:56:47;4.87;;;3.97;;
4595;SDS011;2310;49.978;8.742;2023-05-14T15:00:50;4.80;;;3.30;;
4595;SDS011;2310;49.978;8.742;2023-05-14T15:04:53;4.53;;;3.57;;
4595;SDS011;2310;49.978;8.742;2023-05-14T15:08:54;4.30;;;3.03;;
4595;SDS011;2310;49.978;8.742;2023-05-14T15:12:58;4.60;;;3.97;;
4595;SDS011;2310;49.978;8.742;2023-05-14T15:17:00;4.77;;;3.43;;
4595;SDS011;2310;49.978;8.742;2023-05-14T15:21:01;4.90;;;3.47;;
4595;SDS011;2310;49.978;8.742;2023-05-14T15:25:02;3.73;;;3.30;;
4595;SDS011;2310;49.978;8.742;2023-05-14T15:29:04;4.30;;;3.10;;
4595;SDS011;2310;49.978;8.742;2023-05-14T15:33:09;4.67;;;3.30;;
4595;SDS011;2310;49.978;8.742;2023-05-14T15:37:10;4.53;;;3.43;;
4595;SDS011;2310;49.978;8.742;2023-05-14T15:41:11;4.00;;;3.20;;
4595;SDS011;2310;49.978;8.742;2023-05-14T15:45:13;4.20;;;3.20;;
4595;SDS011;2310;49.978;8.742;2023-05-14T15:49:14;4.67;;;3.57;;
4595;SDS011;2310;49.978;8.742;2023-05-14T15:53:15;3.73;;;2.93;;
4595;SDS011;2310;49.978;8.742;2023-05-14T15:57:16;4.40;;;3.50;;
4595;SDS011;2310;49.978;8.742;2023-05-14T16:01:19;4.00;;;3.40;;
4595;SDS011;2310;49.978;8.742;2023-05-14T16:05:21;6.57;;;3.60;;
4595;SDS011;2310;49.978;8.742;2023-05-14T16:09:22;8.50;;;3.17;;
4595;SDS011;2310;49.978;8.742;2023-05-14T16:13:23;3.60;;;2.53;;
4595;SDS011;2310;49.978;8.742;2023-05-14T16:17:25;4.67;;;2.93;;
4595;SDS011;2310;49.978;8.742;2023-05-14T16:21:27;4.00;;;2.90;;
4595;SDS011;2310;49.978;8.742;2023-05-14T16:25:28;3.47;;;1.87;;
4595;SDS011;2310;49.978;8.742;2023-05-14T16:29:30;4.20;;;2.30;;
4595;SDS011;2310;49.978;8.742;2023-05-14T16:33:31;4.27;;;2.20;;
4595;SDS011;2310;49.978;8.742;2023-05-14T16:37:33;6.53;;;1.90;;
4595;SDS011;2310;49.978;8.742;2023-05-14T16:41:34;3.20;;;2.00;;
4595;SDS011;2310;49.978;8.742;2023-05-14T16:45:35;9.70;;;3.70;;
4595;SDS011;2310;49.978;8.742;2023-05-14T16:49:37;4.60;;;2.77;;
4595;SDS011;2310;49.978;8.742;2023-05-14T16:53:38;6.17;;;2.63;;
4595;SDS011;2310;49.978;8.742;2023-05-14T16:57:39;4.00;;;2.07;;
4595;SDS011;2310;49.978;8.742;2023-05-14T17:01:41;3.60;;;2.00;;
4595;SDS011;2310;49.978;8.742;2023-05-14T17:05:43;3.57;;;2.17;;
4595;SDS011;2310;49.978;8.742;2023-05-14T17:09:44;3.73;;;2.40;;
4595;SDS011;2310;49.978;8.742;2023-05-14T17:13:45;3.97;;;2.57;;
4595;SDS011;2310;49.978;8.742;2023-05-14T17:17:46;3.87;;;2.57;;
4595;SDS011;2310;49.978;8.742;2023-05-14T17:21:48;5.50;;;2.83;;
4595;SDS011;2310;49.978;8.742;2023-05-14T17:25:49;4.47;;;3.50;;
4595;SDS011;2310;49.978;8.742;2023-05-14T17:29:50;4.60;;;3.00;;
4595;SDS011;2310;49.978;8.742;2023-05-14T17:33:51;4.73;;;3.40;;
4595;SDS011;2310;49.978;8.742;2023-05-14T17:37:53;4.20;;;3.03;;
4595;SDS011;2310;49.978;8.742;2023-05-14T17:41:54;5.70;;;2.77;;
4595;SDS011;2310;49.978;8.742;2023-05-14T17:45:55;3.57;;;2.37;;
4595;SDS011;2310;49.978;8.742;2023-05-14T17:49:56;4.20;;;2.70;;
4595;SDS011;2310;49.978;8.742;2023-05-14T17:53:57;4.47;;;3.40;;
4595;SDS011;2310;49.978;8.742;2023-05-14T17:57:59;4.00;;;2.90;;
4595;SDS011;2310;49.978;8.742;2023-05-14T18:02:00;4.57;;;2.90;;
4595;SDS011;2310;49.978;8.742;2023-05-14T18:06:01;3.80;;;2.23;;
4595;SDS011;2310;49.978;8.742;2023-05-14T18:10:03;3.97;;;2.60;;
4595;SDS011;2310;49.978;8.742;2023-05-14T18:14:05;4.10;;;2.50;;
4595;SDS011;2310;49.978;8.742;2023-05-14T18:18:07;3.83;;;2.93;;
4595;SDS011;2310;49.978;8.742;2023-05-14T18:22:08;4.40;;;3.43;;
4595;SDS011;2310;49.978;8.742;2023-05-14T18:26:10;4.30;;;3.50;;
4595;SDS011;2310;49.978;8.742;2023-05-14T18:30:11;4.63;;;3.20;;
4595;SDS011;2310;49.978;8.742;2023-05-14T18:34:14;5.00;;;3.37;;
4595;SDS011;2310;49.978;8.742;2023-05-14T18:38:16;5.93;;;2.77;;
4595;SDS011;2310;49.978;8.742;2023-05-14T18:42:19;4.33;;;3.00;;
4595;SDS011;2310;49.978;8.742;2023-05-14T18:46:20;4.33;;;2.90;;
4595;SDS011;2310;49.978;8.742;2023-05-14T18:50:21;5.20;;;3.30;;
4595;SDS011;2310;49.978;8.742;2023-05-14T18:54:23;5.40;;;3.47;;
4595;SDS011;2310;49.978;8.742;2023-05-14T18:58:24;6.57;;;3.30;;
4595;SDS011;2310;49.978;8.742;2023-05-14T19:02:25;4.40;;;2.70;;
4595;SDS011;2310;49.978;8.742;2023-05-14T19:06:27;5.90;;;2.53;;
4595;SDS011;2310;49.978;8.742;2023-05-14T19:10:29;4.07;;;2.87;;
4595;SDS011;2310;49.978;8.742;2023-05-14T19:14:30;5.27;;;3.60;;
4595;SDS011;2310;49.978;8.742;2023-05-14T19:18:31;5.43;;;4.30;;
4595;SDS011;2310;49.978;8.742;2023-05-14T19:22:32;4.87;;;2.90;;
4595;SDS011;2310;49.978;8.742;2023-05-14T19:26:33;5.40;;;3.03;;
4595;SDS011;2310;49.978;8.742;2023-05-14T19:30:35;5.10;;;3.77;;
4595;SDS011;2310;49.978;8.742;2023-05-14T19:34:36;4.63;;;3.27;;
4595;SDS011;2310;49.978;8.742;2023-05-14T19:38:37;3.87;;;3.07;;
4595;SDS011;2310;49.978;8.742;2023-05-14T19:42:39;4.73;;;2.80;;
4595;SDS011;2310;49.978;8.742;2023-05-14T19:46:40;5.03;;;3.20;;
4595;SDS011;2310;49.978;8.742;2023-05-14T19:50:41;4.93;;;3.40;;
4595;SDS011;2310;49.978;8.742;2023-05-14T19:54:43;4.80;;;3.70;;
4595;SDS011;2310;49.978;8.742;2023-05-14T19:58:44;5.70;;;4.27;;
4595;SDS011;2310;49.978;8.742;2023-05-14T20:02:45;5.80;;;3.87;;
4595;SDS011;2310;49.978;8.742;2023-05-14T20:06:47;5.83;;;3.77;;
4595;SDS011;2310;49.978;8.742;2023-05-14T20:10:49;6.17;;;4.10;;
4595;SDS011;2310;49.978;8.742;2023-05-14T20:14:50;6.27;;;4.87;;
4595;SDS011;2310;49.978;8.742;2023-05-14T20:18:51;5.20;;;4.17;;
4595;SDS011;2310;49.978;8.742;2023-05-14T20:22:53;5.70;;;4.00;;
4595;SDS011;2310;49.978;8.742;2023-05-14T20:26:54;5.20;;;4.47;;
4595;SDS011;2310;49.978;8.742;2023-05-14T20:30:56;4.70;;;4.13;;
4595;SDS011;2310;49.978;8.742;2023-05-14T20:35:03;5.43;;;4.73;;
4595;SDS011;2310;49.978;8.742;2023-05-14T20:39:04;5.20;;;4.20;;
4595;SDS011;2310;49.978;8.742;2023-05-14T20:43:06;5.20;;;4.40;;
4595;SDS011;2310;49.978;8.742;2023-05-14T20:47:07;4.83;;;3.43;;
4595;SDS011;2310;49.978;8.742;2023-05-14T20:51:08;5.10;;;4.10;;
4595;SDS011;2310;49.978;8.742;2023-05-14T20:55:09;6.33;;;4.40;;
4595;SDS011;2310;49.978;8.742;2023-05-14T20:59:10;6.10;;;4.37;;
4595;SDS011;2310;49.978;8.742;2023-05-14T21:03:11;5.77;;;4.67;;
4595;SDS011;2310;49.978;8.742;2023-05-14T21:07:13;5.77;;;5.07;;
4595;SDS011;2310;49.978;8.742;2023-05-14T21:11:14;5.90;;;4.57;;
4595;SDS011;2310;49.978;8.742;2023-05-14T21:15:15;5.90;;;5.00;;
4595;SDS011;2310;49.978;8.742;2023-05-14T21:19:17;5.33;;;4.73;;
4595;SDS011;2310;49.978;8.742;2023-05-14T21:23:18;5.60;;;4.80;;
4595;SDS011;2310;49.978;8.742;2023-05-14T21:27:19;6.60;;;4.80;;
4595;SDS011;2310;49.978;8.742;2023-05-14T21:31:21;7.67;;;4.63;;
4595;SDS011;2310;49.978;8.742;2023-05-14T21:35:22;5.63;;;4.20;;
4595;SDS011;2310;49.978;8.742;2023-05-14T21:39:24;7.00;;;4.60;;
4595;SDS011;2310;49.978;8.742;2023-05-14T21:43:25;5.77;;;5.00;;
4595;SDS011;2310;49.978;8.742;2023-05-14T21:47:27;8.43;;;5.03;;
4595;SDS011;2310;49.978;8.742;2023-05-14T21:51:28;6.83;;;4.97;;
4595;SDS011;2310;49.978;8.742;2023-05-14T21:55:29;8.23;;;5.00;;
4595;SDS011;2310;49.978;8.742;2023-05-14T21:59:30;6.90;;;5.70;;
4595;SDS011;2310;49.978;8.742;2023-05-14T22:03:33;7.33;;;4.83;;
4595;SDS011;2310;49.978;8.742;2023-05-14T22:07:35;4.57;;;4.03;;
4595;SDS011;2310;49.978;8.742;2023-05-14T22:11:36;5.83;;;4.57;;
4595;SDS011;2310;49.978;8.742;2023-05-14T22:15:37;5.87;;;5.00;;
4595;SDS011;2310;49.978;8.742;2023-05-14T22:19:38;6.23;;;5.23;;
4595;SDS011;2310;49.978;8.742;2023-05-14T22:23:40;5.93;;;5.30;;
4595;SDS011;2310;49.978;8.742;2023-05-14T22:27:41;8.40;;;5.17;;
4595;SDS011;2310;49.978;8.742;2023-05-14T22:31:42;6.20;;;4.63;;
4595;SDS011;2310;49.978;8.742;2023-05-14T22:35:43;6.00;;;4.80;;
4595;SDS011;2310;49.978;8.742;2023-05-14T22:39:45;6.00;;;5.40;;
4595;SDS011;2310;49.978;8.742;2023-05-14T22:43:46;5.97;;;5.37;;
4595;SDS011;2310;49.978;8.742;2023-05-14T22:47:48;6.73;;;4.80;;
4595;SDS011;2310;49.978;8.742;2023-05-14T22:51:50;8.47;;;5.50;;
4595;SDS011;2310;49.978;8.742;2023-05-14T22:55:54;6.67;;;5.50;;
4595;SDS011;2310;49.978;8.742;2023-05-14T22:59:55;6.60;;;5.17;;
4595;SDS011;2310;49.978;8.742;2023-05-14T23:03:56;6.80;;;5.80;;
4595;SDS011;2310;49.978;8.742;2023-05-14T23:07:57;5.60;;;5.00;;
4595;SDS011;2310;49.978;8.742;2023-05-14T23:11:58;9.03;;;5.33;;
4595;SDS011;2310;49.978;8.742;2023-05-14T23:16:00;6.03;;;4.90;;
4595;SDS011;2310;49.978;8.742;2023-05-14T23:20:01;7.03;;;5.60;;
4595;SDS011;2310;49.978;8.742;2023-05-14T23:24:04;6.80;;;4.60;;
4595;SDS011;2310;49.978;8.742;2023-05-14T23:28:06;7.23;;;5.13;;
4595;SDS011;2310;49.978;8.742;2023-05-14T23:32:07;6.47;;;5.10;;
4595;SDS011;2310;49.978;8.742;2023-05-14T23:36:09;6.23;;;5.43;;
4595;SDS011;2310;49.978;8.742;2023-05-14T23:40:10;7.00;;;4.73;;
4595;SDS011;2310;49.978;8.742;2023-05-14T23:44:11;6.20;;;5.60;;
4595;SDS011;2310;49.978;8.742;2023-05-14T23:48:13;6.87;;;5.43;;
4595;SDS011;2310;49.978;8.742;2023-05-14T23:52:14;6.33;;;5.23;;
4595;SDS011;2310;49.978;8.742;2023-05-14T23:56:15;5.40;;;4.90;;
